KSAZ Airport (Staples Muni) Information

FAA: SAZ - ICAO: KSAZ

KSAZ Airport Location

State Minnesota
County Wadena
City Staples
KSAZ Airport is 2 miles northwest of Staples, MN.
Latitude 46-22-51.1660N
Longitude 094-48-23.7660W
Elevation 1,287ft

KSAZ Airport METARs

METAR KSAZ 181255Z AUTO 14008KT 7SM OVC008 M02/M04 A2947 RMK AO2
Altimeter 29.47"
Temperature -2.0°C (28.4°F)
Wind 140° at 8KT
Clouds overcast at 800ft
Visibility 7.0mi
Time observed: 2022-01-18T12:55:00Z

KSAZ Airport Details

Status Operational
Activation October 1946
Ownership Public
Usage Public
Chart TWIN CITIES
ATC on-site No
Beacon schedule sunset-sunrise
Beacon color clear green

KSAZ Airport Contacts

Owner CITY OF STAPLES
Owner address 122 6TH ST. NE, STAPLES, MN 56479
Owner phone 218-894-2550
Manager DAVID MANSFIELD
Manager address 10051 BROOKSIDE AVE, BLOOMINGTON, MN 55431
Manager phone (817) 360-9430

KSAZ Airport (Staples Muni) Radio Frequencies

KSAZ (Airport) Radio Frequencies

UNICOM N/A
Common traffic advisory frequency (CTAF) 122.9